createdAt,value
2023-01-18T00:00:00.361Z, -3.4
2023-01-18T00:02:00.162Z, -3.4
2023-01-18T00:04:00.263Z, -3.4
2023-01-18T00:06:00.132Z, -3.4
2023-01-18T00:08:00.118Z, -3.4
2023-01-18T00:10:00.103Z, -3.4
2023-01-18T00:12:00.091Z, -3.4
2023-01-18T00:14:00.115Z, -3.4
2023-01-18T00:16:00.285Z, -3.2
2023-01-18T00:18:00.105Z, -3.2
2023-01-18T00:20:00.114Z, -3.3
2023-01-18T00:22:00.119Z, -3.2
2023-01-18T00:24:00.284Z, -3.3
2023-01-18T00:26:00.105Z, -3.3
2023-01-18T00:28:00.166Z, -3.4
2023-01-18T00:30:00.113Z, -3.3
2023-01-18T00:32:00.180Z, -3.3
2023-01-18T00:34:00.236Z, -3.4
2023-01-18T00:36:00.105Z, -3.5
2023-01-18T00:38:00.108Z, -3.6
2023-01-18T00:40:00.101Z, -3.4
2023-01-18T00:42:00.105Z, -3.4
2023-01-18T00:44:00.112Z, -3.4
2023-01-18T00:46:00.138Z, -3.4
2023-01-18T00:48:00.115Z, -3.5
2023-01-18T00:50:00.134Z, -3.5
2023-01-18T00:52:00.110Z, -3.5
2023-01-18T00:54:00.584Z, -3.5
2023-01-18T00:56:00.087Z, -3.5
2023-01-18T00:58:00.081Z, -3.5
2023-01-18T01:00:00.142Z, -3.5
2023-01-18T01:02:00.338Z, -3.5
2023-01-18T01:04:00.105Z, -3.4
2023-01-18T01:06:00.095Z, -3.4
2023-01-18T01:08:00.119Z, -3.4
2023-01-18T01:10:00.112Z, -3.4
2023-01-18T01:12:00.106Z, -3.3
2023-01-18T01:14:00.101Z, -3.1
2023-01-18T01:16:00.107Z, -3.1
2023-01-18T01:18:00.093Z, -3.1
2023-01-18T01:20:00.129Z, -3.2
2023-01-18T01:22:00.113Z, -3.2
2023-01-18T01:24:00.131Z, -3.2
2023-01-18T01:26:00.136Z, -3.1
2023-01-18T01:28:00.101Z, -3.2
2023-01-18T01:30:00.165Z, -3.1
2023-01-18T01:32:00.115Z, -3.2
2023-01-18T01:34:00.110Z, -3.3
2023-01-18T01:36:00.088Z, -3.3
2023-01-18T01:38:00.097Z, -3.2
2023-01-18T01:40:00.108Z, -3.1
2023-01-18T01:42:00.126Z, -3
2023-01-18T01:44:00.094Z, -2.9
2023-01-18T01:46:01.210Z, -2.9
2023-01-18T01:48:00.116Z, -2.8
2023-01-18T01:50:00.115Z, -3
2023-01-18T01:52:00.086Z, -3.1
2023-01-18T01:54:00.103Z, -3
2023-01-18T01:56:00.105Z, -3.1
2023-01-18T01:58:00.119Z, -2.9
2023-01-18T02:00:00.156Z, -3
2023-01-18T02:02:00.297Z, -3
2023-01-18T02:04:00.101Z, -3
2023-01-18T02:06:00.114Z, -3
2023-01-18T02:08:00.141Z, -3.1
2023-01-18T02:10:00.116Z, -3.1
2023-01-18T02:12:00.083Z, -3
2023-01-18T02:14:00.095Z, -3
2023-01-18T02:16:00.115Z, -3
2023-01-18T02:18:00.089Z, -3
2023-01-18T02:20:00.095Z, -3.2
2023-01-18T02:22:00.121Z, -3.3
2023-01-18T02:24:00.107Z, -3.3
2023-01-18T02:26:00.133Z, -3.3
2023-01-18T02:28:00.104Z, -3.4
2023-01-18T02:30:00.138Z, -3.3
2023-01-18T02:32:00.096Z, -3.2
2023-01-18T02:34:00.081Z, -3.2
2023-01-18T02:36:00.090Z, -3.1
2023-01-18T02:38:00.107Z, -3.1
2023-01-18T02:40:00.319Z, -3.2
2023-01-18T02:42:00.432Z, -3.1
2023-01-18T02:44:00.414Z, -3
2023-01-18T02:46:00.262Z, -3.1
2023-01-18T02:48:00.101Z, -3.1
2023-01-18T02:50:00.100Z, -3.1
2023-01-18T02:52:00.099Z, -3
2023-01-18T02:54:00.175Z, -3.1
2023-01-18T02:56:00.089Z, -3.1
2023-01-18T02:58:00.077Z, -3.2
2023-01-18T03:00:00.137Z, -3.2
2023-01-18T03:02:00.192Z, -3.2
2023-01-18T03:04:00.082Z, -3.2
2023-01-18T03:06:00.114Z, -3.2
2023-01-18T03:08:00.123Z, -3.3
2023-01-18T03:10:00.116Z, -3.3
2023-01-18T03:12:00.102Z, -3.4
2023-01-18T03:14:00.096Z, -3.4
2023-01-18T03:16:05.106Z, -3.3
2023-01-18T03:18:00.100Z, -3.3
2023-01-18T03:20:00.118Z, -3.3
2023-01-18T03:22:00.099Z, -3.3
2023-01-18T03:24:00.097Z, -3.3
2023-01-18T03:26:00.071Z, -3.2
2023-01-18T03:28:00.129Z, -3.2
2023-01-18T03:30:00.119Z, -3.1
2023-01-18T03:32:00.107Z, -3.1
2023-01-18T03:34:00.098Z, -3.1
2023-01-18T03:36:00.209Z, -3.1
2023-01-18T03:38:00.123Z, -3
2023-01-18T03:40:00.111Z, -3.1
2023-01-18T03:42:00.118Z, -3.1
2023-01-18T03:44:00.115Z, -3.1
2023-01-18T03:46:00.130Z, -3.1
2023-01-18T03:48:00.107Z, -3.1
2023-01-18T03:50:00.156Z, -3.1
2023-01-18T03:52:00.119Z, -3.2
2023-01-18T03:54:00.097Z, -3.3
2023-01-18T03:56:00.120Z, -3.4
2023-01-18T03:58:00.105Z, -3.5
2023-01-18T04:00:00.142Z, -3.4
2023-01-18T04:02:00.172Z, -3.5
2023-01-18T04:04:00.143Z, -3.5
2023-01-18T04:06:00.105Z, -3.4
2023-01-18T04:08:00.130Z, -3.3
2023-01-18T04:10:00.133Z, -3.3
2023-01-18T04:12:00.106Z, -3.3
2023-01-18T04:14:00.099Z, -3.3
2023-01-18T04:16:00.150Z, -3.1
2023-01-18T04:18:00.127Z, -3
2023-01-18T04:20:00.085Z, -3.3
2023-01-18T04:22:00.090Z, -3.4
2023-01-18T04:24:00.090Z, -3.3
2023-01-18T04:26:00.122Z, -3.1
2023-01-18T04:28:00.118Z, -3.1
2023-01-18T04:30:00.093Z, -2.9
2023-01-18T04:32:00.127Z, -2.9
2023-01-18T04:34:00.093Z, -2.9
2023-01-18T04:36:00.092Z, -3
2023-01-18T04:38:00.108Z, -3.1
2023-01-18T04:40:00.107Z, -3.2
2023-01-18T04:42:00.107Z, -3.1
2023-01-18T04:44:00.102Z, -3.1
2023-01-18T04:46:00.096Z, -3.2
2023-01-18T04:48:00.100Z, -3.4
2023-01-18T04:50:00.161Z, -3.5
2023-01-18T04:52:00.108Z, -3.5
2023-01-18T04:54:00.130Z, -3.5
2023-01-18T04:56:00.101Z, -3.6
2023-01-18T04:58:00.100Z, -3.5
2023-01-18T05:00:00.117Z, -3.4
2023-01-18T05:02:00.206Z, -3.4
2023-01-18T05:04:00.108Z, -3.5
2023-01-18T05:06:00.077Z, -3.6
2023-01-18T05:08:00.109Z, -3.6
2023-01-18T05:10:00.108Z, -3.6
2023-01-18T05:12:00.106Z, -3.6
2023-01-18T05:14:00.139Z, -3.7
2023-01-18T05:16:00.209Z, -3.6
2023-01-18T05:18:00.121Z, -3.5
2023-01-18T05:20:00.149Z, -3.4
2023-01-18T05:22:00.121Z, -3.5
2023-01-18T05:24:00.107Z, -3.5
2023-01-18T05:26:00.115Z, -3.6
2023-01-18T05:28:00.098Z, -3.6
2023-01-18T05:30:00.143Z, -3.6
2023-01-18T05:32:00.221Z, -3.6
2023-01-18T05:34:00.417Z, -3.7
2023-01-18T05:36:00.123Z, -3.8
2023-01-18T05:38:00.101Z, -3.7
2023-01-18T05:40:00.154Z, -3.7
2023-01-18T05:42:00.371Z, -3.7
2023-01-18T05:44:00.103Z, -3.7
2023-01-18T05:46:00.177Z, -3.8
2023-01-18T05:48:00.112Z, -3.8
2023-01-18T05:50:00.095Z, -3.8
2023-01-18T05:52:00.093Z, -3.9
2023-01-18T05:54:00.122Z, -3.9
2023-01-18T05:56:00.147Z, -3.9
2023-01-18T05:58:00.115Z, -4
2023-01-18T06:00:00.128Z, -4.2
2023-01-18T06:02:00.182Z, -4.3
2023-01-18T06:04:00.138Z, -4.3
2023-01-18T06:06:00.124Z, -4.2
2023-01-18T06:08:00.093Z, -4.2
2023-01-18T06:10:00.133Z, -4.2
2023-01-18T06:12:00.133Z, -4.2
2023-01-18T06:14:00.148Z, -4.3
2023-01-18T06:16:00.145Z, -4.3
2023-01-18T06:18:00.167Z, -4.3
2023-01-18T06:20:00.116Z, -4.4
2023-01-18T06:22:00.100Z, -4.4
2023-01-18T06:24:00.103Z, -4.4
2023-01-18T06:26:00.090Z, -4.4
2023-01-18T06:28:00.109Z, -4.4
2023-01-18T06:30:00.108Z, -4.4
2023-01-18T06:32:00.189Z, -4.5
2023-01-18T06:34:00.108Z, -4.4
2023-01-18T06:36:00.114Z, -4.4
2023-01-18T06:38:00.087Z, -4.4
2023-01-18T06:40:02.596Z, -4.5
2023-01-18T06:42:00.107Z, -4.5
2023-01-18T06:44:00.091Z, -4.5
2023-01-18T06:46:00.196Z, -4.4
2023-01-18T06:48:00.113Z, -4.2
2023-01-18T06:50:00.091Z, -4.1
2023-01-18T06:52:00.129Z, -4.1
2023-01-18T06:54:00.117Z, -4.2
2023-01-18T06:56:00.137Z, -4.3
2023-01-18T06:58:00.112Z, -4.3
2023-01-18T07:00:00.108Z, -4.3
2023-01-18T07:02:00.331Z, -4.4
2023-01-18T07:04:00.149Z, -4.5
2023-01-18T07:06:00.146Z, -4.5
2023-01-18T07:08:00.123Z, -4.6
2023-01-18T07:10:00.132Z, -4.7
2023-01-18T07:12:00.123Z, -4.7
2023-01-18T07:14:00.121Z, -4.7
2023-01-18T07:16:01.095Z, -4.7
2023-01-18T07:18:00.094Z, -4.6
2023-01-18T07:20:00.110Z, -4.5
2023-01-18T07:22:00.121Z, -4.3
2023-01-18T07:24:00.060Z, -4.3
2023-01-18T07:26:00.135Z, -4.3
2023-01-18T07:28:00.092Z, -4.4
2023-01-18T07:30:00.089Z, -4.5
2023-01-18T07:32:00.132Z, -4.5
2023-01-18T07:34:00.128Z, -4.5
2023-01-18T07:36:00.100Z, -4.6
2023-01-18T07:38:00.098Z, -4.6
2023-01-18T07:40:00.092Z, -4.5
2023-01-18T07:42:00.182Z, -4.3
2023-01-18T07:44:00.099Z, -4.3
2023-01-18T07:46:00.139Z, -4.3
2023-01-18T07:48:00.123Z, -4.4
2023-01-18T07:50:00.172Z, -4.5
2023-01-18T07:52:00.132Z, -4.6
2023-01-18T07:54:00.137Z, -4.6
2023-01-18T07:56:00.113Z, -4.5
2023-01-18T07:58:00.156Z, -4.3
2023-01-18T08:00:00.122Z, -4.2
2023-01-18T08:02:00.415Z, -4
2023-01-18T08:04:00.371Z, -3.9
2023-01-18T08:06:00.447Z, -4
2023-01-18T08:08:00.122Z, -3.9
2023-01-18T08:10:00.134Z, -4
2023-01-18T08:12:00.092Z, -4
2023-01-18T08:14:00.103Z, -4.1
2023-01-18T08:16:00.235Z, -4.2
2023-01-18T08:18:00.088Z, -4.2
2023-01-18T08:20:00.111Z, -4.1
2023-01-18T08:22:00.100Z, -4.2
2023-01-18T08:24:00.131Z, -4.1
2023-01-18T08:26:00.112Z, -4.1
2023-01-18T08:28:00.118Z, -4.1
2023-01-18T08:30:00.149Z, -4.2
2023-01-18T08:32:00.137Z, -4
2023-01-18T08:34:00.124Z, -4.1
2023-01-18T08:36:00.084Z, -4.2
2023-01-18T08:38:00.131Z, -4.2
2023-01-18T08:40:00.105Z, -4.3
2023-01-18T08:42:00.123Z, -4.3
2023-01-18T08:44:00.130Z, -4.2
2023-01-18T08:46:00.223Z, -4.1
2023-01-18T08:48:00.093Z, -4.1
2023-01-18T08:50:00.146Z, -4
2023-01-18T08:52:00.095Z, -3.9
2023-01-18T08:54:00.176Z, -4
2023-01-18T08:56:00.121Z, -4
2023-01-18T08:58:00.141Z, -3.9
2023-01-18T09:00:00.101Z, -3.8
2023-01-18T09:02:00.166Z, -4
2023-01-18T09:04:00.093Z, -3.9
2023-01-18T09:06:00.211Z, -3.8
2023-01-18T09:08:00.092Z, -3.9
2023-01-18T09:10:00.109Z, -3.8
2023-01-18T09:12:00.143Z, -4
2023-01-18T09:14:01.436Z, -3.9
2023-01-18T09:16:00.216Z, -3.8
2023-01-18T09:18:00.122Z, -3.7
2023-01-18T09:20:00.130Z, -3.7
2023-01-18T09:22:00.126Z, -3.7
2023-01-18T09:24:00.098Z, -3.7
2023-01-18T09:26:00.130Z, -3.7
2023-01-18T09:28:00.114Z, -3.9
2023-01-18T09:30:00.097Z, -3.8
2023-01-18T09:32:00.048Z, -3.8
2023-01-18T09:34:18.049Z, -3.7
2023-01-18T09:36:00.111Z, -3.9
2023-01-18T09:38:00.107Z, -3.8
2023-01-18T09:40:00.072Z, -3.5
2023-01-18T09:42:00.148Z, -3.6
2023-01-18T09:44:00.092Z, -3.7
2023-01-18T09:46:00.096Z, -3.8
2023-01-18T09:48:00.094Z, -3.8
2023-01-18T09:50:00.165Z, -3.8
2023-01-18T09:52:00.148Z, -3.8
2023-01-18T09:54:00.149Z, -3.9
2023-01-18T09:56:00.179Z, -3.6
2023-01-18T09:58:00.054Z, -3.7
2023-01-18T10:00:00.070Z, -3.7
2023-01-18T10:02:00.266Z, -3.7
2023-01-18T10:04:00.107Z, -3.7
2023-01-18T10:06:00.108Z, -3.6
2023-01-18T10:08:00.095Z, -3.7
2023-01-18T10:10:00.136Z, -3.8
2023-01-18T10:12:00.094Z, -3.8
2023-01-18T10:14:00.083Z, -3.9
2023-01-18T10:16:00.156Z, -3.7
2023-01-18T10:18:00.094Z, -3.7
2023-01-18T10:20:00.075Z, -3.8
2023-01-18T10:22:00.088Z, -3.8
2023-01-18T10:24:00.105Z, -3.7
2023-01-18T10:26:00.111Z, -3.7
2023-01-18T10:28:00.177Z, -3.7
2023-01-18T10:30:00.114Z, -3.6
2023-01-18T10:32:00.103Z, -3.7
2023-01-18T10:34:00.085Z, -3.7
2023-01-18T10:36:00.081Z, -3.7
2023-01-18T10:38:00.523Z, -3.9
2023-01-18T10:40:00.127Z, -3.9
2023-01-18T10:42:00.102Z, -3.8
2023-01-18T10:44:00.421Z, -3.7
2023-01-18T10:46:00.172Z, -3.6
2023-01-18T10:48:00.100Z, -3.7
2023-01-18T10:50:00.153Z, -3.8
2023-01-18T10:52:00.099Z, -3.7
2023-01-18T10:54:00.111Z, -3.8
2023-01-18T10:56:00.095Z, -3.7
2023-01-18T10:58:00.625Z, -3.6
2023-01-18T11:00:00.112Z, -3.4
2023-01-18T11:02:00.300Z, -3.5
2023-01-18T11:04:00.115Z, -3.4
2023-01-18T11:06:00.108Z, -3.2
2023-01-18T11:08:02.538Z, -3.3
2023-01-18T11:10:00.120Z, -3.4
2023-01-18T11:12:00.101Z, -3.2
2023-01-18T11:14:00.087Z, -3.2
2023-01-18T11:16:00.094Z, -3.2
2023-01-18T11:18:00.109Z, -3.2
2023-01-18T11:20:00.111Z, -3.2
2023-01-18T11:22:00.115Z, -3.2
2023-01-18T11:24:00.101Z, -3.2
2023-01-18T11:26:00.067Z, -3.2
2023-01-18T11:28:00.518Z, -3.2
2023-01-18T11:30:00.110Z, -3.2
2023-01-18T11:32:00.153Z, -3.1
2023-01-18T11:34:00.197Z, -3.1
2023-01-18T11:36:00.404Z, -3.2
2023-01-18T11:38:00.641Z, -3.3
2023-01-18T11:40:00.105Z, -3.3
2023-01-18T11:42:00.086Z, -3.2
2023-01-18T11:44:00.097Z, -3.3
2023-01-18T11:46:00.190Z, -3.3
2023-01-18T11:48:00.516Z, -3.3
2023-01-18T11:50:03.729Z, -3.3
2023-01-18T11:52:00.129Z, -3.5
2023-01-18T11:54:00.128Z, -3.2
2023-01-18T11:56:00.104Z, -3.4
2023-01-18T11:58:00.411Z, -3.4
2023-01-18T12:00:00.120Z, -3.2
2023-01-18T12:02:00.173Z, -3.4
2023-01-18T12:04:00.088Z, -3.4
2023-01-18T12:06:00.091Z, -3.5
2023-01-18T12:08:00.382Z, -3.4
2023-01-18T12:10:00.119Z, -3.5
2023-01-18T12:12:13.437Z, -3.3
2023-01-18T12:14:00.091Z, -3.3
2023-01-18T12:16:00.102Z, -3.3
2023-01-18T12:18:12.483Z, -3.3
2023-01-18T12:20:00.126Z, -3.5
2023-01-18T12:22:00.113Z, -3.4
2023-01-18T12:24:00.087Z, -3.4
2023-01-18T12:26:11.420Z, -3.4
2023-01-18T12:28:00.533Z, -3.4
2023-01-18T12:30:00.131Z, -3.4
2023-01-18T12:32:00.101Z, -3.4
2023-01-18T12:34:00.099Z, -3.2
2023-01-18T12:36:00.100Z, -3
2023-01-18T12:38:00.569Z, -3
2023-01-18T12:40:00.125Z, -3.2
2023-01-18T12:42:00.094Z, -3.3
2023-01-18T12:44:00.102Z, -3.1
2023-01-18T12:46:00.179Z, -3.1
2023-01-18T12:48:00.530Z, -3.2
2023-01-18T12:50:00.092Z, -3.2
2023-01-18T12:52:17.141Z, -3.2
2023-01-18T12:54:00.108Z, -3.1
2023-01-18T12:56:00.095Z, -3.2
2023-01-18T12:58:00.579Z, -3.2
2023-01-18T13:00:00.128Z, -3.1
2023-01-18T13:02:00.199Z, -3
2023-01-18T13:04:00.082Z, -2.9
2023-01-18T13:06:00.122Z, -3
2023-01-18T13:08:00.479Z, -3
2023-01-18T13:10:00.100Z, -3
2023-01-18T13:12:00.100Z, -3.1
2023-01-18T13:14:00.108Z, -3
2023-01-18T13:16:00.402Z, -2.9
2023-01-18T13:18:00.575Z, -2.9
2023-01-18T13:20:00.129Z, -2.7
2023-01-18T13:22:00.112Z, -2.8
2023-01-18T13:24:00.157Z, -2.9
2023-01-18T13:26:00.109Z, -2.8
2023-01-18T13:28:00.570Z, -2.8
2023-01-18T13:30:00.099Z, -2.8
2023-01-18T13:32:00.080Z, -2.8
2023-01-18T13:34:00.116Z, -2.9
2023-01-18T13:36:00.102Z, -2.8
2023-01-18T13:38:00.432Z, -2.8
2023-01-18T13:40:00.114Z, -2.8
2023-01-18T13:42:00.106Z, -2.8
2023-01-18T13:44:00.103Z, -2.7
2023-01-18T13:46:00.199Z, -2.8
2023-01-18T13:48:00.543Z, -2.8
2023-01-18T13:50:00.109Z, -2.8
2023-01-18T13:52:00.096Z, -2.8
2023-01-18T13:54:00.146Z, -2.8
2023-01-18T13:56:00.109Z, -2.9
2023-01-18T13:58:00.509Z, -2.9
2023-01-18T14:00:00.311Z, -2.9
2023-01-18T14:02:00.344Z, -2.9
2023-01-18T14:04:00.299Z, -2.8
2023-01-18T14:06:00.100Z, -2.7
2023-01-18T14:08:00.093Z, -2.8
2023-01-18T14:10:00.085Z, -2.8
2023-01-18T14:12:00.110Z, -2.7
2023-01-18T14:14:00.098Z, -2.8
2023-01-18T14:16:00.129Z, -3
2023-01-18T14:18:00.136Z, -3
2023-01-18T14:20:00.172Z, -2.9
2023-01-18T14:22:00.108Z, -2.7
2023-01-18T14:24:00.121Z, -2.7
2023-01-18T14:26:00.099Z, -2.6
2023-01-18T14:28:00.117Z, -2.7
2023-01-18T14:30:00.128Z, -2.8
2023-01-18T14:32:00.164Z, -2.8
2023-01-18T14:34:00.108Z, -2.9
2023-01-18T14:36:00.173Z, -3
2023-01-18T14:38:16.513Z, -2.9
2023-01-18T14:40:00.092Z, -3
2023-01-18T14:42:00.108Z, -3.1
2023-01-18T14:44:00.135Z, -3.1
2023-01-18T14:46:00.127Z, -3
2023-01-18T14:48:00.115Z, -3
2023-01-18T14:50:00.106Z, -3.1
2023-01-18T14:52:00.118Z, -3
2023-01-18T14:54:00.115Z, -3.2
2023-01-18T14:56:00.125Z, -3.2
2023-01-18T14:58:00.106Z, -3.1
2023-01-18T15:00:00.107Z, -3.1
2023-01-18T15:02:00.187Z, -3
2023-01-18T15:04:00.121Z, -3
2023-01-18T15:06:00.105Z, -3
2023-01-18T15:08:00.122Z, -3
2023-01-18T15:10:00.109Z, -3.1
2023-01-18T15:12:00.103Z, -3.2
2023-01-18T15:14:00.152Z, -3.2
2023-01-18T15:16:01.207Z, -3.1
2023-01-18T15:18:00.547Z, -3.2
2023-01-18T15:20:00.110Z, -3.5
2023-01-18T15:22:00.107Z, -3.5
2023-01-18T15:24:00.109Z, -3.4
2023-01-18T15:26:00.113Z, -3.3
2023-01-18T15:28:01.965Z, -3.5
2023-01-18T15:30:00.136Z, -3.5
2023-01-18T15:32:00.102Z, -3.5
2023-01-18T15:34:00.101Z, -3.5
2023-01-18T15:36:00.084Z, -3.4
2023-01-18T15:38:00.501Z, -3.5
2023-01-18T15:40:00.172Z, -3.5
2023-01-18T15:42:00.089Z, -3.5
2023-01-18T15:44:00.119Z, -3.6
2023-01-18T15:46:00.142Z, -3.6
2023-01-18T15:48:00.870Z, -3.6
2023-01-18T15:50:00.398Z, -3.7
2023-01-18T15:52:00.072Z, -3.7
2023-01-18T15:54:00.123Z, -3.7
2023-01-18T15:56:00.120Z, -3.6
2023-01-18T15:58:00.632Z, -3.6
2023-01-18T16:00:00.098Z, -3.7
2023-01-18T16:02:00.369Z, -3.6
2023-01-18T16:04:00.114Z, -3.6
2023-01-18T16:06:00.104Z, -3.6
2023-01-18T16:08:09.651Z, -3.7
2023-01-18T16:10:00.117Z, -3.7
2023-01-18T16:12:00.095Z, -3.8
2023-01-18T16:14:00.094Z, -3.7
2023-01-18T16:16:00.071Z, -3.8
2023-01-18T16:18:00.491Z, -3.8
2023-01-18T16:20:00.129Z, -3.8
2023-01-18T16:22:00.083Z, -3.8
2023-01-18T16:24:00.110Z, -3.9
2023-01-18T16:26:00.116Z, -3.9
2023-01-18T16:28:00.645Z, -3.9
2023-01-18T16:30:00.135Z, -4.1
2023-01-18T16:32:00.110Z, -4.1
2023-01-18T16:34:00.259Z, -4
2023-01-18T16:36:00.123Z, -4
2023-01-18T16:38:00.559Z, -4.1
2023-01-18T16:40:00.106Z, -4
2023-01-18T16:42:00.140Z, -4
2023-01-18T16:44:00.090Z, -4.1
2023-01-18T16:46:00.177Z, -4.1
2023-01-18T16:48:00.576Z, -4.1
2023-01-18T16:50:00.138Z, -4.1
2023-01-18T16:52:00.087Z, -4
2023-01-18T16:54:00.119Z, -4
2023-01-18T16:56:00.105Z, -4
2023-01-18T16:58:00.521Z, -4.1
2023-01-18T17:00:00.100Z, -4.2
2023-01-18T17:02:00.273Z, -4.1
2023-01-18T17:04:00.070Z, -4.1
2023-01-18T17:06:00.111Z, -4.2
2023-01-18T17:08:00.486Z, -4.2
2023-01-18T17:10:00.100Z, -4.2
2023-01-18T17:12:00.103Z, -4.2
2023-01-18T17:14:00.130Z, -4.2
2023-01-18T17:16:00.083Z, -4.1
2023-01-18T17:18:00.106Z, -4.1
2023-01-18T17:20:00.107Z, -4.1
2023-01-18T17:22:00.110Z, -4.2
2023-01-18T17:24:00.113Z, -4.1
2023-01-18T17:26:00.124Z, -4.2
2023-01-18T17:28:00.132Z, -4.2
2023-01-18T17:30:00.113Z, -4.2
2023-01-18T17:32:00.104Z, -4.2
2023-01-18T17:34:00.069Z, -4.2
2023-01-18T17:36:00.091Z, -4.2
2023-01-18T17:38:11.289Z, -4.1
2023-01-18T17:40:13.651Z, -4.1
2023-01-18T17:42:00.102Z, -4.1
2023-01-18T17:44:00.093Z, -4.1
2023-01-18T17:46:02.010Z, -4.1
2023-01-18T17:48:00.103Z, -4.2
2023-01-18T17:50:00.104Z, -4.2
2023-01-18T17:52:00.098Z, -4.2
2023-01-18T17:54:00.779Z, -4.2
2023-01-18T17:56:00.100Z, -4.2
2023-01-18T17:58:00.108Z, -4.2
2023-01-18T18:00:00.095Z, -4.2
2023-01-18T18:02:00.138Z, -4.2
2023-01-18T18:04:00.118Z, -4.2
2023-01-18T18:06:00.109Z, -4.3
2023-01-18T18:08:00.105Z, -4.3
2023-01-18T18:10:00.215Z, -4.2
2023-01-18T18:12:00.068Z, -4.3
2023-01-18T18:14:01.633Z, -4.2
2023-01-18T18:16:00.185Z, -4.4
2023-01-18T18:18:00.168Z, -4.3
2023-01-18T18:20:00.137Z, -4.3
2023-01-18T18:22:00.093Z, -4.4
2023-01-18T18:24:00.115Z, -4.4
2023-01-18T18:26:00.293Z, -4.3
2023-01-18T18:28:00.133Z, -4.4
2023-01-18T18:30:00.440Z, -4.4
2023-01-18T18:32:00.089Z, -4.4
2023-01-18T18:34:00.096Z, -4.3
2023-01-18T18:36:00.096Z, -4.3
2023-01-18T18:38:00.093Z, -4.3
2023-01-18T18:40:00.093Z, -4.4
2023-01-18T18:42:00.098Z, -4.4
2023-01-18T18:44:00.102Z, -4.3
2023-01-18T18:46:00.119Z, -4.3
2023-01-18T18:48:00.194Z, -4.3
2023-01-18T18:50:00.142Z, -4.4
2023-01-18T18:52:00.106Z, -4.3
2023-01-18T18:54:00.091Z, -4.3
2023-01-18T18:56:00.074Z, -4.4
2023-01-18T18:58:00.099Z, -4.4
2023-01-18T19:00:00.118Z, -4.4
2023-01-18T19:02:00.149Z, -4.5
2023-01-18T19:04:00.147Z, -4.5
2023-01-18T19:06:00.102Z, -4.4
2023-01-18T19:08:00.103Z, -4.5
2023-01-18T19:10:00.126Z, -4.4
2023-01-18T19:12:00.098Z, -4.5
2023-01-18T19:14:00.085Z, -4.6
2023-01-18T19:16:00.215Z, -4.6
2023-01-18T19:18:00.121Z, -4.6
2023-01-18T19:20:00.122Z, -4.6
2023-01-18T19:22:00.084Z, -4.7
2023-01-18T19:24:00.097Z, -4.7
2023-01-18T19:26:00.088Z, -4.6
2023-01-18T19:28:00.103Z, -4.6
2023-01-18T19:30:00.099Z, -4.7
2023-01-18T19:32:00.095Z, -4.6
2023-01-18T19:34:00.096Z, -4.6
2023-01-18T19:36:00.083Z, -4.6
2023-01-18T19:38:00.151Z, -4.6
2023-01-18T19:40:00.164Z, -4.6
2023-01-18T19:42:00.108Z, -4.6
2023-01-18T19:44:00.102Z, -4.6
2023-01-18T19:46:00.109Z, -4.6
2023-01-18T19:48:00.147Z, -4.6
2023-01-18T19:50:00.097Z, -4.6
2023-01-18T19:52:00.122Z, -4.6
2023-01-18T19:54:00.079Z, -4.6
2023-01-18T19:56:07.176Z, -4.6
2023-01-18T19:58:01.693Z, -4.6
2023-01-18T20:00:00.097Z, -4.6
2023-01-18T20:02:00.284Z, -4.6
2023-01-18T20:04:00.117Z, -4.5
2023-01-18T20:06:00.099Z, -4.6
2023-01-18T20:08:00.110Z, -4.6
2023-01-18T20:10:00.132Z, -4.6
2023-01-18T20:12:00.101Z, -4.6
2023-01-18T20:14:00.103Z, -4.6
2023-01-18T20:16:00.207Z, -4.6
2023-01-18T20:18:00.138Z, -4.6
2023-01-18T20:20:00.108Z, -4.5
2023-01-18T20:22:00.090Z, -4.6
2023-01-18T20:24:00.114Z, -4.6
2023-01-18T20:26:00.097Z, -4.6
2023-01-18T20:28:00.102Z, -4.6
2023-01-18T20:30:00.106Z, -4.6
2023-01-18T20:32:13.251Z, -4.6
2023-01-18T20:34:00.098Z, -4.7
2023-01-18T20:36:00.116Z, -4.7
2023-01-18T20:38:00.100Z, -4.7
2023-01-18T20:40:00.111Z, -4.7
2023-01-18T20:42:00.096Z, -4.7
2023-01-18T20:44:00.096Z, -4.7
2023-01-18T20:46:00.122Z, -4.8
2023-01-18T20:48:00.092Z, -4.7
2023-01-18T20:50:00.081Z, -4.7
2023-01-18T20:52:00.104Z, -4.7
2023-01-18T20:54:00.117Z, -4.7
2023-01-18T20:56:00.106Z, -4.7
2023-01-18T20:58:00.075Z, -4.7
2023-01-18T21:00:00.108Z, -4.7
2023-01-18T21:02:00.431Z, -4.8
2023-01-18T21:04:00.136Z, -4.7
2023-01-18T21:06:00.106Z, -4.8
2023-01-18T21:08:00.593Z, -4.8
2023-01-18T21:10:00.203Z, -4.7
2023-01-18T21:12:00.093Z, -4.7
2023-01-18T21:14:00.137Z, -4.8
2023-01-18T21:16:00.069Z, -4.7
2023-01-18T21:18:02.355Z, -4.7
2023-01-18T21:20:00.105Z, -4.7
2023-01-18T21:22:00.088Z, -4.8
2023-01-18T21:24:00.148Z, -4.7
2023-01-18T21:26:00.101Z, -4.7
2023-01-18T21:28:00.557Z, -4.7
2023-01-18T21:30:00.085Z, -4.7
2023-01-18T21:32:00.196Z, -4.7
2023-01-18T21:34:00.106Z, -4.6
2023-01-18T21:36:00.093Z, -4.6
2023-01-18T21:38:00.520Z, -4.6
2023-01-18T21:40:00.107Z, -4.6
2023-01-18T21:42:00.100Z, -4.6
2023-01-18T21:44:00.115Z, -4.6
2023-01-18T21:46:00.180Z, -4.6
2023-01-18T21:48:00.391Z, -4.7
2023-01-18T21:50:17.793Z, -4.6
2023-01-18T21:52:00.087Z, -4.6
2023-01-18T21:54:00.199Z, -4.6
2023-01-18T21:56:00.095Z, -4.6
2023-01-18T21:58:00.525Z, -4.6
2023-01-18T22:00:00.106Z, -4.6
2023-01-18T22:02:00.291Z, -4.6
2023-01-18T22:04:00.112Z, -4.6
2023-01-18T22:06:00.120Z, -4.6
2023-01-18T22:08:00.597Z, -4.6
2023-01-18T22:10:05.643Z, -4.6
2023-01-18T22:12:00.146Z, -4.6
2023-01-18T22:14:00.103Z, -4.5
2023-01-18T22:16:00.067Z, -4.5
2023-01-18T22:18:00.514Z, -4.4
2023-01-18T22:20:00.338Z, -4.4
2023-01-18T22:22:00.100Z, -4.4
2023-01-18T22:24:00.097Z, -4.4
2023-01-18T22:26:00.111Z, -4.3
2023-01-18T22:28:00.456Z, -4.3
2023-01-18T22:30:00.301Z, -4.3
2023-01-18T22:32:00.114Z, -4.3
2023-01-18T22:34:00.151Z, -4.2
2023-01-18T22:36:00.103Z, -4.2
2023-01-18T22:38:00.442Z, -4.2
2023-01-18T22:40:00.121Z, -4.1
2023-01-18T22:42:00.069Z, -4.1
2023-01-18T22:44:00.107Z, -4.1
2023-01-18T22:46:00.202Z, -4.1
2023-01-18T22:48:00.536Z, -4.2
2023-01-18T22:50:00.112Z, -4.2
2023-01-18T22:52:00.093Z, -4.2
2023-01-18T22:54:00.096Z, -4.2
2023-01-18T22:56:00.107Z, -4.2
2023-01-18T22:58:00.437Z, -4.2
2023-01-18T23:00:00.187Z, -4.1
2023-01-18T23:02:00.089Z, -4.2
2023-01-18T23:04:00.091Z, -4.2
2023-01-18T23:06:00.112Z, -4.1
2023-01-18T23:08:00.573Z, -4
2023-01-18T23:10:00.106Z, -3.9
2023-01-18T23:12:00.081Z, -4
2023-01-18T23:14:00.093Z, -3.8
2023-01-18T23:16:00.145Z, -3.7
2023-01-18T23:18:00.546Z, -3.7
2023-01-18T23:20:00.111Z, -3.6
2023-01-18T23:22:00.087Z, -3.7
2023-01-18T23:24:00.097Z, -3.7
2023-01-18T23:26:00.069Z, -3.7
2023-01-18T23:28:00.473Z, -3.8
2023-01-18T23:30:00.196Z, -3.9
2023-01-18T23:32:00.139Z, -3.9
2023-01-18T23:34:00.071Z, -3.9
2023-01-18T23:36:00.095Z, -4.1
2023-01-18T23:38:00.806Z, -3.9
2023-01-18T23:40:00.205Z, -3.9
2023-01-18T23:42:00.097Z, -3.8
2023-01-18T23:44:00.090Z, -3.7
2023-01-18T23:46:00.086Z, -3.7
2023-01-18T23:48:00.537Z, -3.8
2023-01-18T23:50:00.113Z, -3.8
2023-01-18T23:52:00.120Z, -3.7
2023-01-18T23:54:00.117Z, -3.7
2023-01-18T23:56:00.123Z, -3.7
2023-01-18T23:58:00.477Z, -3.7
